Terminal Aerodrome Forecast
Issued by NWS Nashville, TN

Home | Current Version | Previous Version | Text Only | Print | Product List | Glossary On
Versions: 1 2 3 4 5 6 7 8 9 10 11 12 13 14 15 16 17 18 19 20 21 22 23 24 25
108
FTUS44 KOHX 240520
TAFCSV
TAF
KCSV 240520Z 2406/2506 18006KT P6SM SKC WS020/18035KT
     FM242000 19014G22KT P6SM SCT060
     FM250000 18010KT P6SM BKN050 PROB30 2504/2506 2SM TSRA
      OVC025CB=

USA.gov is the U.S. government's official web portal to all federal, state and local government web resources and services.